sensor_id;sensor_type;location;lat;lon;timestamp;pressure;altitude;pressure_sealevel;temperature;humidity
79453;BME280;68899;52.116;5.404;2024-02-04T00:02:13;102388.81;;;9.72;93.29
79453;BME280;68899;52.116;5.404;2024-02-04T00:04:40;102387.94;;;9.73;93.29
79453;BME280;68899;52.116;5.404;2024-02-04T00:07:07;102394.00;;;9.75;93.54
79453;BME280;68899;52.116;5.404;2024-02-04T00:09:34;102393.16;;;9.75;93.40
79453;BME280;68899;52.116;5.404;2024-02-04T00:12:02;102395.72;;;9.76;93.41
79453;BME280;68899;52.116;5.404;2024-02-04T00:14:30;102402.69;;;9.77;93.23
79453;BME280;68899;52.116;5.404;2024-02-04T00:16:57;102400.91;;;9.78;93.32
79453;BME280;68899;52.116;5.404;2024-02-04T00:19:24;102382.56;;;9.76;93.51
79453;BME280;68899;52.116;5.404;2024-02-04T00:21:50;102378.22;;;9.75;93.50
79453;BME280;68899;52.116;5.404;2024-02-04T00:24:17;102380.00;;;9.75;93.30
79453;BME280;68899;52.116;5.404;2024-02-04T00:26:45;102385.34;;;9.72;93.47
79453;BME280;68899;52.116;5.404;2024-02-04T00:29:11;102388.88;;;9.71;93.49
79453;BME280;68899;52.116;5.404;2024-02-04T00:31:38;102387.97;;;9.72;93.63
79453;BME280;68899;52.116;5.404;2024-02-04T00:34:04;102387.16;;;9.70;93.76
79453;BME280;68899;52.116;5.404;2024-02-04T00:36:31;102384.53;;;9.70;93.63
79453;BME280;68899;52.116;5.404;2024-02-04T00:38:58;102382.88;;;9.67;93.94
79453;BME280;68899;52.116;5.404;2024-02-04T00:41:24;102387.28;;;9.67;93.69
79453;BME280;68899;52.116;5.404;2024-02-04T00:43:51;102387.28;;;9.67;93.72
79453;BME280;68899;52.116;5.404;2024-02-04T00:46:18;102389.06;;;9.66;94.13
79453;BME280;68899;52.116;5.404;2024-02-04T00:48:45;102387.34;;;9.65;93.75
79453;BME280;68899;52.116;5.404;2024-02-04T00:51:12;102385.59;;;9.64;93.62
79453;BME280;68899;52.116;5.404;2024-02-04T00:53:40;102379.47;;;9.63;93.74
79453;BME280;68899;52.116;5.404;2024-02-04T00:56:07;102383.03;;;9.62;93.61
79453;BME280;68899;52.116;5.404;2024-02-04T00:58:33;102378.69;;;9.61;93.61
79453;BME280;68899;52.116;5.404;2024-02-04T01:01:00;102369.94;;;9.61;93.56
79453;BME280;68899;52.116;5.404;2024-02-04T01:03:26;102370.91;;;9.58;93.91
79453;BME280;68899;52.116;5.404;2024-02-04T01:05:53;102380.56;;;9.58;93.72
79453;BME280;68899;52.116;5.404;2024-02-04T01:08:22;102367.44;;;9.58;93.64
79453;BME280;68899;52.116;5.404;2024-02-04T01:10:48;102366.56;;;9.57;93.71
79453;BME280;68899;52.116;5.404;2024-02-04T01:13:17;102369.13;;;9.59;93.85
79453;BME280;68899;52.116;5.404;2024-02-04T01:15:44;102376.16;;;9.58;93.57
79453;BME280;68899;52.116;5.404;2024-02-04T01:18:10;102372.69;;;9.58;93.67
79453;BME280;68899;52.116;5.404;2024-02-04T01:20:37;102370.97;;;9.57;93.71
79453;BME280;68899;52.116;5.404;2024-02-04T01:23:03;102344.72;;;9.55;93.72
79453;BME280;68899;52.116;5.404;2024-02-04T01:25:30;102351.72;;;9.56;93.27
79453;BME280;68899;52.116;5.404;2024-02-04T01:27:56;102356.97;;;9.56;93.71
79453;BME280;68899;52.116;5.404;2024-02-04T01:30:23;102358.69;;;9.57;93.48
79453;BME280;68899;52.116;5.404;2024-02-04T01:32:50;102354.34;;;9.56;93.38
79453;BME280;68899;52.116;5.404;2024-02-04T01:35:17;102359.63;;;9.55;93.95
79453;BME280;68899;52.116;5.404;2024-02-04T01:37:43;102367.47;;;9.56;93.26
79453;BME280;68899;52.116;5.404;2024-02-04T01:40:10;102360.59;;;9.52;93.25
79453;BME280;68899;52.116;5.404;2024-02-04T01:42:37;102367.66;;;9.50;93.08
79453;BME280;68899;52.116;5.404;2024-02-04T01:45:04;102371.22;;;9.49;93.13
79453;BME280;68899;52.116;5.404;2024-02-04T01:47:31;102372.97;;;9.49;92.97
79453;BME280;68899;52.116;5.404;2024-02-04T01:49:58;102365.03;;;9.50;92.91
79453;BME280;68899;52.116;5.404;2024-02-04T01:52:25;102366.81;;;9.50;93.09
79453;BME280;68899;52.116;5.404;2024-02-04T01:54:52;102363.34;;;9.49;93.13
79453;BME280;68899;52.116;5.404;2024-02-04T01:57:19;102358.16;;;9.46;92.88
79453;BME280;68899;52.116;5.404;2024-02-04T01:59:47;102370.44;;;9.46;92.95
79453;BME280;68899;52.116;5.404;2024-02-04T02:02:14;102372.25;;;9.44;92.91
79453;BME280;68899;52.116;5.404;2024-02-04T02:04:42;102371.34;;;9.45;92.90
79453;BME280;68899;52.116;5.404;2024-02-04T02:07:09;102375.75;;;9.44;93.49
79453;BME280;68899;52.116;5.404;2024-02-04T02:09:36;102383.69;;;9.43;92.52
79453;BME280;68899;52.116;5.404;2024-02-04T02:12:09;102376.72;;;9.42;92.77
79453;BME280;68899;52.116;5.404;2024-02-04T02:14:44;102385.50;;;9.41;92.58
79453;BME280;68899;52.116;5.404;2024-02-04T02:17:14;102385.56;;;9.39;92.85
79453;BME280;68899;52.116;5.404;2024-02-04T02:19:54;102388.22;;;9.38;92.65
79453;BME280;68899;52.116;5.404;2024-02-04T02:22:50;102382.16;;;9.35;92.41
79453;BME280;68899;52.116;5.404;2024-02-04T02:25:20;102376.94;;;9.34;92.40
79453;BME280;68899;52.116;5.404;2024-02-04T02:27:49;102358.56;;;9.34;92.22
79453;BME280;68899;52.116;5.404;2024-02-04T02:30:17;102342.91;;;9.31;92.29
79453;BME280;68899;52.116;5.404;2024-02-04T02:32:44;102351.72;;;9.30;91.93
79453;BME280;68899;52.116;5.404;2024-02-04T02:35:15;102345.63;;;9.28;91.83
79453;BME280;68899;52.116;5.404;2024-02-04T02:37:56;102356.13;;;9.28;92.09
79453;BME280;68899;52.116;5.404;2024-02-04T02:40:29;102356.13;;;9.28;92.02
79453;BME280;68899;52.116;5.404;2024-02-04T02:43:01;102348.25;;;9.28;92.17
79453;BME280;68899;52.116;5.404;2024-02-04T02:45:29;102352.59;;;9.29;92.01
79453;BME280;68899;52.116;5.404;2024-02-04T02:47:56;102351.72;;;9.30;92.04
79453;BME280;68899;52.116;5.404;2024-02-04T02:50:23;102358.69;;;9.29;92.11
79453;BME280;68899;52.116;5.404;2024-02-04T02:52:50;102362.22;;;9.30;92.16
79453;BME280;68899;52.116;5.404;2024-02-04T02:55:17;102363.94;;;9.31;92.08
79453;BME280;68899;52.116;5.404;2024-02-04T02:57:43;102364.72;;;9.33;92.21
79453;BME280;68899;52.116;5.404;2024-02-04T03:00:10;102357.75;;;9.32;91.87
79453;BME280;68899;52.116;5.404;2024-02-04T03:02:37;102365.69;;;9.30;92.14
79453;BME280;68899;52.116;5.404;2024-02-04T03:05:03;102354.34;;;9.28;91.94
79453;BME280;68899;52.116;5.404;2024-02-04T03:07:30;102354.34;;;9.28;91.86
79453;BME280;68899;52.116;5.404;2024-02-04T03:09:57;102347.34;;;9.29;91.98
79453;BME280;68899;52.116;5.404;2024-02-04T03:12:23;102355.22;;;9.29;92.24
79453;BME280;68899;52.116;5.404;2024-02-04T03:14:50;102350.88;;;9.28;91.62
79453;BME280;68899;52.116;5.404;2024-02-04T03:17:16;102354.34;;;9.28;91.91
79453;BME280;68899;52.116;5.404;2024-02-04T03:19:48;102355.31;;;9.26;92.20
79453;BME280;68899;52.116;5.404;2024-02-04T03:22:15;102358.88;;;9.25;91.94
79453;BME280;68899;52.116;5.404;2024-02-04T03:24:42;102350.97;;;9.25;92.06
79453;BME280;68899;52.116;5.404;2024-02-04T03:27:09;102353.72;;;9.22;91.88
79453;BME280;68899;52.116;5.404;2024-02-04T03:29:35;102351.09;;;9.22;91.46
79453;BME280;68899;52.116;5.404;2024-02-04T03:32:02;102361.63;;;9.20;91.25
79453;BME280;68899;52.116;5.404;2024-02-04T03:34:29;102352.03;;;9.19;91.50
79453;BME280;68899;52.116;5.404;2024-02-04T03:36:55;102353.84;;;9.17;91.27
79453;BME280;68899;52.116;5.404;2024-02-04T03:39:22;102348.66;;;9.16;91.06
79453;BME280;68899;52.116;5.404;2024-02-04T03:41:48;102347.78;;;9.15;91.41
79453;BME280;68899;52.116;5.404;2024-02-04T03:44:15;102348.75;;;9.13;90.20
79453;BME280;68899;52.116;5.404;2024-02-04T03:46:41;102351.41;;;9.11;90.25
79453;BME280;68899;52.116;5.404;2024-02-04T03:49:08;102352.31;;;9.10;89.96
79453;BME280;68899;52.116;5.404;2024-02-04T03:51:35;102354.94;;;9.10;90.02
79453;BME280;68899;52.116;5.404;2024-02-04T03:54:02;102367.25;;;9.08;89.60
79453;BME280;68899;52.116;5.404;2024-02-04T03:56:28;102369.94;;;9.06;89.63
79453;BME280;68899;52.116;5.404;2024-02-04T03:58:55;102370.00;;;9.05;89.75
79453;BME280;68899;52.116;5.404;2024-02-04T04:01:21;102375.31;;;9.03;89.35
79453;BME280;68899;52.116;5.404;2024-02-04T04:03:48;102366.50;;;9.04;89.29
79453;BME280;68899;52.116;5.404;2024-02-04T04:06:14;102362.19;;;9.02;89.22
79453;BME280;68899;52.116;5.404;2024-02-04T04:08:41;102361.28;;;9.03;89.04
79453;BME280;68899;52.116;5.404;2024-02-04T04:11:09;102362.19;;;9.03;89.25
79453;BME280;68899;52.116;5.404;2024-02-04T04:13:36;102350.72;;;9.06;89.22
79453;BME280;68899;52.116;5.404;2024-02-04T04:16:04;102348.13;;;9.04;89.42
79453;BME280;68899;52.116;5.404;2024-02-04T04:18:31;102338.53;;;9.03;89.58
79453;BME280;68899;52.116;5.404;2024-02-04T04:20:58;102337.66;;;9.03;89.26
79453;BME280;68899;52.116;5.404;2024-02-04T04:23:24;102334.22;;;9.01;89.50
79453;BME280;68899;52.116;5.404;2024-02-04T04:25:51;102337.75;;;9.00;89.74
79453;BME280;68899;52.116;5.404;2024-02-04T04:28:17;102342.09;;;9.01;89.77
79453;BME280;68899;52.116;5.404;2024-02-04T04:30:44;102335.94;;;9.02;89.89
79453;BME280;68899;52.116;5.404;2024-02-04T04:33:10;102339.47;;;9.01;89.69
79453;BME280;68899;52.116;5.404;2024-02-04T04:35:38;102332.56;;;8.98;89.72
79453;BME280;68899;52.116;5.404;2024-02-04T04:38:05;102339.59;;;8.98;89.81
79453;BME280;68899;52.116;5.404;2024-02-04T04:40:31;102343.00;;;9.00;90.19
79453;BME280;68899;52.116;5.404;2024-02-04T04:42:58;102334.28;;;8.99;90.20
79453;BME280;68899;52.116;5.404;2024-02-04T04:45:25;102338.72;;;8.97;89.98
79453;BME280;68899;52.116;5.404;2024-02-04T04:47:51;102336.09;;;8.97;89.89
79453;BME280;68899;52.116;5.404;2024-02-04T04:50:18;102314.25;;;8.97;89.78
79453;BME280;68899;52.116;5.404;2024-02-04T04:52:44;102317.72;;;8.97;89.86
79453;BME280;68899;52.116;5.404;2024-02-04T04:55:11;102309.91;;;8.96;89.83
79453;BME280;68899;52.116;5.404;2024-02-04T04:57:38;102310.78;;;8.96;89.58
79453;BME280;68899;52.116;5.404;2024-02-04T05:00:05;102305.53;;;8.96;89.56
79453;BME280;68899;52.116;5.404;2024-02-04T05:02:36;102308.22;;;8.93;89.42
79453;BME280;68899;52.116;5.404;2024-02-04T05:05:03;102303.88;;;8.92;89.56
79453;BME280;68899;52.116;5.404;2024-02-04T05:07:30;102292.56;;;8.90;89.95
79453;BME280;68899;52.116;5.404;2024-02-04T05:09:57;102295.31;;;8.87;89.61
79453;BME280;68899;52.116;5.404;2024-02-04T05:12:23;102303.13;;;8.89;89.78
79453;BME280;68899;52.116;5.404;2024-02-04T05:14:50;102307.53;;;8.88;89.60
79453;BME280;68899;52.116;5.404;2024-02-04T05:17:16;102305.81;;;8.86;89.85
79453;BME280;68899;52.116;5.404;2024-02-04T05:19:43;102311.06;;;8.86;89.63
79453;BME280;68899;52.116;5.404;2024-02-04T05:22:10;102305.75;;;8.89;89.66
79453;BME280;68899;52.116;5.404;2024-02-04T05:24:36;102308.38;;;8.89;89.49
79453;BME280;68899;52.116;5.404;2024-02-04T05:27:03;102311.84;;;8.89;89.84
79453;BME280;68899;52.116;5.404;2024-02-04T05:29:31;102310.09;;;8.90;89.69
79453;BME280;68899;52.116;5.404;2024-02-04T05:31:58;102313.63;;;8.89;89.75
79453;BME280;68899;52.116;5.404;2024-02-04T05:34:25;102299.66;;;8.88;89.73
79453;BME280;68899;52.116;5.404;2024-02-04T05:36:51;102301.38;;;8.89;90.03
79453;BME280;68899;52.116;5.404;2024-02-04T05:39:18;102297.81;;;8.90;89.95
79453;BME280;68899;52.116;5.404;2024-02-04T05:41:45;102288.19;;;8.91;89.73
79453;BME280;68899;52.116;5.404;2024-02-04T05:44:11;102290.88;;;8.89;89.74
79453;BME280;68899;52.116;5.404;2024-02-04T05:46:38;102274.34;;;8.86;89.54
79453;BME280;68899;52.116;5.404;2024-02-04T05:49:05;102271.72;;;8.86;89.63
79453;BME280;68899;52.116;5.404;2024-02-04T05:51:32;102284.84;;;8.86;89.54
79453;BME280;68899;52.116;5.404;2024-02-04T05:54:03;102285.72;;;8.86;89.10
79453;BME280;68899;52.116;5.404;2024-02-04T05:56:29;102291.84;;;8.87;89.16
79453;BME280;68899;52.116;5.404;2024-02-04T05:58:56;102287.56;;;8.83;89.17
79453;BME280;68899;52.116;5.404;2024-02-04T06:01:23;102290.19;;;8.83;89.26
79453;BME280;68899;52.116;5.404;2024-02-04T06:03:50;102288.41;;;8.83;89.52
79453;BME280;68899;52.116;5.404;2024-02-04T06:06:17;102282.25;;;8.84;89.15
79453;BME280;68899;52.116;5.404;2024-02-04T06:08:47;102256.13;;;8.81;88.96
79453;BME280;68899;52.116;5.404;2024-02-04T06:11:13;102262.28;;;8.80;89.13
79453;BME280;68899;52.116;5.404;2024-02-04T06:13:41;102257.91;;;8.81;89.83
79453;BME280;68899;52.116;5.404;2024-02-04T06:16:08;102260.53;;;8.81;89.94
79453;BME280;68899;52.116;5.404;2024-02-04T06:18:36;102269.19;;;8.83;90.11
79453;BME280;68899;52.116;5.404;2024-02-04T06:21:06;102259.56;;;8.83;90.08
79453;BME280;68899;52.116;5.404;2024-02-04T06:23:33;102256.88;;;8.85;89.83
79453;BME280;68899;52.116;5.404;2024-02-04T06:26:00;102255.13;;;8.85;90.14
79453;BME280;68899;52.116;5.404;2024-02-04T06:28:28;102250.78;;;8.84;90.33
79453;BME280;68899;52.116;5.404;2024-02-04T06:30:55;102244.63;;;8.85;90.36
79453;BME280;68899;52.116;5.404;2024-02-04T06:33:22;102247.16;;;8.88;90.35
79453;BME280;68899;52.116;5.404;2024-02-04T06:35:50;102234.09;;;8.87;90.52
79453;BME280;68899;52.116;5.404;2024-02-04T06:38:17;102233.25;;;8.86;90.81
79453;BME280;68899;52.116;5.404;2024-02-04T06:40:43;102238.44;;;8.88;90.96
79453;BME280;68899;52.116;5.404;2024-02-04T06:43:10;102247.09;;;8.90;90.78
79453;BME280;68899;52.116;5.404;2024-02-04T06:45:36;102247.06;;;8.91;90.97
79453;BME280;68899;52.116;5.404;2024-02-04T06:48:03;102229.53;;;8.92;91.35
79453;BME280;68899;52.116;5.404;2024-02-04T06:50:30;102232.97;;;8.94;90.90
79453;BME280;68899;52.116;5.404;2024-02-04T06:52:56;102234.72;;;8.93;91.39
79453;BME280;68899;52.116;5.404;2024-02-04T06:55:23;102236.41;;;8.96;91.75
79453;BME280;68899;52.116;5.404;2024-02-04T06:57:50;102239.03;;;8.96;91.67
79453;BME280;68899;52.116;5.404;2024-02-04T07:00:17;102240.75;;;8.97;91.95
79453;BME280;68899;52.116;5.404;2024-02-04T07:02:43;102243.38;;;8.97;91.72
79453;BME280;68899;52.116;5.404;2024-02-04T07:05:09;102242.41;;;8.99;92.54
79453;BME280;68899;52.116;5.404;2024-02-04T07:07:37;102243.31;;;8.98;91.98
79453;BME280;68899;52.116;5.404;2024-02-04T07:10:04;102239.72;;;9.01;91.79
79453;BME280;68899;52.116;5.404;2024-02-04T07:12:31;102230.94;;;9.03;91.79
79453;BME280;68899;52.116;5.404;2024-02-04T07:14:58;102230.00;;;9.04;91.82
79453;BME280;68899;52.116;5.404;2024-02-04T07:17:25;102215.91;;;9.07;92.01
79453;BME280;68899;52.116;5.404;2024-02-04T07:19:52;102220.25;;;9.08;91.78
79453;BME280;68899;52.116;5.404;2024-02-04T07:22:18;102222.94;;;9.06;91.30
79453;BME280;68899;52.116;5.404;2024-02-04T07:24:45;102226.41;;;9.07;91.02
79453;BME280;68899;52.116;5.404;2024-02-04T07:27:11;102215.81;;;9.10;91.33
79453;BME280;68899;52.116;5.404;2024-02-04T07:29:38;102230.75;;;9.08;91.22
79453;BME280;68899;52.116;5.404;2024-02-04T07:32:04;102220.13;;;9.11;91.46
79453;BME280;68899;52.116;5.404;2024-02-04T07:34:31;102224.50;;;9.12;92.01
79453;BME280;68899;52.116;5.404;2024-02-04T07:36:58;102221.91;;;9.11;91.75
79453;BME280;68899;52.116;5.404;2024-02-04T07:39:25;102225.38;;;9.13;91.86
79453;BME280;68899;52.116;5.404;2024-02-04T07:41:51;102241.97;;;9.13;91.52
79453;BME280;68899;52.116;5.404;2024-02-04T07:44:20;102239.28;;;9.15;91.39
79453;BME280;68899;52.116;5.404;2024-02-04T07:46:46;102232.22;;;9.17;91.67
79453;BME280;68899;52.116;5.404;2024-02-04T07:49:13;102244.38;;;9.19;91.57
79453;BME280;68899;52.116;5.404;2024-02-04T07:51:39;102248.78;;;9.19;91.49
79453;BME280;68899;52.116;5.404;2024-02-04T07:54:06;102241.69;;;9.21;91.21
79453;BME280;68899;52.116;5.404;2024-02-04T07:56:32;102245.16;;;9.23;91.26
79453;BME280;68899;52.116;5.404;2024-02-04T07:58:59;102237.28;;;9.23;91.62
79453;BME280;68899;52.116;5.404;2024-02-04T08:01:25;102227.69;;;9.22;90.58
79453;BME280;68899;52.116;5.404;2024-02-04T08:03:52;102230.31;;;9.22;90.31
79453;BME280;68899;52.116;5.404;2024-02-04T08:06:19;102232.06;;;9.21;90.31
79453;BME280;68899;52.116;5.404;2024-02-04T08:08:45;102230.34;;;9.20;90.32
79453;BME280;68899;52.116;5.404;2024-02-04T08:11:18;102232.97;;;9.20;90.12
79453;BME280;68899;52.116;5.404;2024-02-04T08:13:44;102230.34;;;9.20;89.78
79453;BME280;68899;52.116;5.404;2024-02-04T08:16:11;102231.25;;;9.19;89.91
79453;BME280;68899;52.116;5.404;2024-02-04T08:18:38;102229.47;;;9.20;89.71
79453;BME280;68899;52.116;5.404;2024-02-04T08:21:05;102228.56;;;9.21;89.81
79453;BME280;68899;52.116;5.404;2024-02-04T08:23:32;102232.03;;;9.23;89.74
79453;BME280;68899;52.116;5.404;2024-02-04T08:25:59;102220.59;;;9.24;89.64
79453;BME280;68899;52.116;5.404;2024-02-04T08:28:25;102218.84;;;9.24;89.80
79453;BME280;68899;52.116;5.404;2024-02-04T08:30:52;102219.63;;;9.26;89.66
79453;BME280;68899;52.116;5.404;2024-02-04T08:33:19;102223.06;;;9.28;89.81
79453;BME280;68899;52.116;5.404;2024-02-04T08:35:45;102229.22;;;9.27;89.80
79453;BME280;68899;52.116;5.404;2024-02-04T08:38:12;102218.66;;;9.29;89.42
79453;BME280;68899;52.116;5.404;2024-02-04T08:40:38;102218.66;;;9.29;89.33
79453;BME280;68899;52.116;5.404;2024-02-04T08:43:05;102213.41;;;9.29;89.09
79453;BME280;68899;52.116;5.404;2024-02-04T08:45:31;102216.88;;;9.29;89.43
79453;BME280;68899;52.116;5.404;2024-02-04T08:47:58;102214.31;;;9.28;89.46
79453;BME280;68899;52.116;5.404;2024-02-04T08:50:25;102214.31;;;9.28;88.92
79453;BME280;68899;52.116;5.404;2024-02-04T08:52:51;102206.38;;;9.29;89.39
79453;BME280;68899;52.116;5.404;2024-02-04T08:55:18;102205.53;;;9.29;89.62
79453;BME280;68899;52.116;5.404;2024-02-04T08:57:45;102195.94;;;9.28;89.69
79453;BME280;68899;52.116;5.404;2024-02-04T09:00:12;102195.94;;;9.28;89.97
79453;BME280;68899;52.116;5.404;2024-02-04T09:02:39;102201.09;;;9.31;89.98
79453;BME280;68899;52.116;5.404;2024-02-04T09:05:06;102193.25;;;9.29;90.29
79453;BME280;68899;52.116;5.404;2024-02-04T09:07:33;102189.75;;;9.30;90.42
79453;BME280;68899;52.116;5.404;2024-02-04T09:10:00;102187.91;;;9.32;90.29
79453;BME280;68899;52.116;5.404;2024-02-04T09:12:26;102184.38;;;9.33;90.38
79453;BME280;68899;52.116;5.404;2024-02-04T09:14:53;102181.63;;;9.37;90.52
79453;BME280;68899;52.116;5.404;2024-02-04T09:17:20;102189.44;;;9.38;90.49
79453;BME280;68899;52.116;5.404;2024-02-04T09:19:48;102195.59;;;9.39;90.77
79453;BME280;68899;52.116;5.404;2024-02-04T09:22:15;102198.97;;;9.42;91.17
79453;BME280;68899;52.116;5.404;2024-02-04T09:24:43;102204.16;;;9.44;91.22
79453;BME280;68899;52.116;5.404;2024-02-04T09:27:10;102214.53;;;9.47;91.27
79453;BME280;68899;52.116;5.404;2024-02-04T09:29:36;102215.44;;;9.47;91.18
79453;BME280;68899;52.116;5.404;2024-02-04T09:32:03;102214.44;;;9.50;91.26
79453;BME280;68899;52.116;5.404;2024-02-04T09:34:30;102212.69;;;9.50;91.38
79453;BME280;68899;52.116;5.404;2024-02-04T09:36:57;102211.72;;;9.53;91.32
79453;BME280;68899;52.116;5.404;2024-02-04T09:39:24;102220.38;;;9.55;91.15
79453;BME280;68899;52.116;5.404;2024-02-04T09:41:51;102210.69;;;9.57;91.15
79453;BME280;68899;52.116;5.404;2024-02-04T09:44:18;102200.06;;;9.60;91.34
79453;BME280;68899;52.116;5.404;2024-02-04T09:46:45;102203.50;;;9.62;91.08
79453;BME280;68899;52.116;5.404;2024-02-04T09:49:12;102208.69;;;9.63;91.12
79453;BME280;68899;52.116;5.404;2024-02-04T09:51:40;102197.31;;;9.63;90.91
79453;BME280;68899;52.116;5.404;2024-02-04T09:54:10;102209.50;;;9.66;91.10
79453;BME280;68899;52.116;5.404;2024-02-04T09:56:38;102205.97;;;9.67;91.09
79453;BME280;68899;52.116;5.404;2024-02-04T09:59:05;102191.00;;;9.69;91.12
79453;BME280;68899;52.116;5.404;2024-02-04T10:01:31;102203.22;;;9.70;90.94
79453;BME280;68899;52.116;5.404;2024-02-04T10:03:58;102200.53;;;9.71;90.98
79453;BME280;68899;52.116;5.404;2024-02-04T10:06:25;102200.47;;;9.73;91.06
79453;BME280;68899;52.116;5.404;2024-02-04T10:08:53;102207.47;;;9.74;90.92
79453;BME280;68899;52.116;5.404;2024-02-04T10:11:20;102209.13;;;9.76;90.65
79453;BME280;68899;52.116;5.404;2024-02-04T10:13:48;102208.25;;;9.76;90.74
79453;BME280;68899;52.116;5.404;2024-02-04T10:16:16;102210.84;;;9.77;90.68
79453;BME280;68899;52.116;5.404;2024-02-04T10:18:46;102210.78;;;9.79;90.67
79453;BME280;68899;52.116;5.404;2024-02-04T10:21:18;102208.94;;;9.81;90.67
79453;BME280;68899;52.116;5.404;2024-02-04T10:23:46;102196.66;;;9.81;90.48
79453;BME280;68899;52.116;5.404;2024-02-04T10:26:13;102204.53;;;9.81;90.46
79453;BME280;68899;52.116;5.404;2024-02-04T10:28:40;102209.69;;;9.84;90.44
79453;BME280;68899;52.116;5.404;2024-02-04T10:31:10;102207.94;;;9.85;90.24
79453;BME280;68899;52.116;5.404;2024-02-04T10:33:37;102204.31;;;9.87;90.13
79453;BME280;68899;52.116;5.404;2024-02-04T10:36:05;102208.66;;;9.88;90.09
79453;BME280;68899;52.116;5.404;2024-02-04T10:38:32;102213.00;;;9.89;89.60
79453;BME280;68899;52.116;5.404;2024-02-04T10:41:01;102212.91;;;9.93;89.33
79453;BME280;68899;52.116;5.404;2024-02-04T10:43:31;102218.16;;;9.93;89.29
79453;BME280;68899;52.116;5.404;2024-02-04T10:48:37;102218.09;;;9.94;88.60
79453;BME280;68899;52.116;5.404;2024-02-04T10:51:15;102221.53;;;9.96;88.70
79453;BME280;68899;52.116;5.404;2024-02-04T10:53:43;102217.06;;;9.98;88.98
79453;BME280;68899;52.116;5.404;2024-02-04T10:56:18;102211.81;;;9.98;88.60
79453;BME280;68899;52.116;5.404;2024-02-04T10:58:47;102215.25;;;10.00;88.65
79453;BME280;68899;52.116;5.404;2024-02-04T11:01:14;102209.16;;;10.00;88.65
79453;BME280;68899;52.116;5.404;2024-02-04T11:03:40;102215.19;;;10.02;88.83
79453;BME280;68899;52.116;5.404;2024-02-04T11:06:08;102210.72;;;10.04;88.79
79453;BME280;68899;52.116;5.404;2024-02-04T11:08:35;102209.75;;;10.06;88.59
79453;BME280;68899;52.116;5.404;2024-02-04T11:11:01;102208.97;;;10.04;88.50
79453;BME280;68899;52.116;5.404;2024-02-04T11:13:28;102219.47;;;10.04;88.65
79453;BME280;68899;52.116;5.404;2024-02-04T11:15:58;102209.09;;;10.01;89.03
79453;BME280;68899;52.116;5.404;2024-02-04T11:19:50;102219.66;;;10.00;88.98
79453;BME280;68899;52.116;5.404;2024-02-04T11:25:08;102212.78;;;9.96;90.08
79453;BME280;68899;52.116;5.404;2024-02-04T11:27:40;102212.00;;;9.94;90.73
79453;BME280;68899;52.116;5.404;2024-02-04T11:30:07;102205.88;;;9.93;91.21
79453;BME280;68899;52.116;5.404;2024-02-04T11:32:35;102206.78;;;9.92;91.52
79453;BME280;68899;52.116;5.404;2024-02-04T11:35:02;102197.06;;;9.94;91.97
79453;BME280;68899;52.116;5.404;2024-02-04T11:37:29;102197.88;;;9.96;92.16
79453;BME280;68899;52.116;5.404;2024-02-04T11:39:57;102190.84;;;9.97;92.07
79453;BME280;68899;52.116;5.404;2024-02-04T11:42:25;102182.03;;;9.98;92.71
79453;BME280;68899;52.116;5.404;2024-02-04T11:45:09;102168.84;;;9.99;92.58
79453;BME280;68899;52.116;5.404;2024-02-04T11:47:37;102169.72;;;10.00;92.78
79453;BME280;68899;52.116;5.404;2024-02-04T11:50:04;102164.38;;;10.01;92.83
79453;BME280;68899;52.116;5.404;2024-02-04T11:52:31;102163.53;;;10.01;92.69
79453;BME280;68899;52.116;5.404;2024-02-04T11:54:59;102166.22;;;9.99;92.84
79453;BME280;68899;52.116;5.404;2024-02-04T11:57:26;102169.72;;;10.00;92.72
79453;BME280;68899;52.116;5.404;2024-02-04T11:59:54;102167.97;;;9.99;92.87
79453;BME280;68899;52.116;5.404;2024-02-04T12:02:21;102167.97;;;9.99;92.82
79453;BME280;68899;52.116;5.404;2024-02-04T12:04:48;102166.22;;;9.99;92.88
79453;BME280;68899;52.116;5.404;2024-02-04T12:07:15;102165.34;;;9.99;92.73
79453;BME280;68899;52.116;5.404;2024-02-04T12:09:42;102158.44;;;9.96;92.81
79453;BME280;68899;52.116;5.404;2024-02-04T12:12:09;102149.69;;;9.96;92.82
79453;BME280;68899;52.116;5.404;2024-02-04T12:14:36;102154.88;;;9.97;92.84
79453;BME280;68899;52.116;5.404;2024-02-04T12:17:10;102154.88;;;9.97;92.94
79453;BME280;68899;52.116;5.404;2024-02-04T12:19:37;102156.56;;;10.00;92.77
79453;BME280;68899;52.116;5.404;2024-02-04T12:22:09;102143.28;;;10.03;92.79
79453;BME280;68899;52.116;5.404;2024-02-04T12:24:36;102148.63;;;10.01;92.91
79453;BME280;68899;52.116;5.404;2024-02-04T12:27:06;102139.88;;;10.01;92.67
79453;BME280;68899;52.116;5.404;2024-02-04T12:29:33;102143.28;;;10.03;92.65
79453;BME280;68899;52.116;5.404;2024-02-04T12:32:01;102136.19;;;10.05;92.54
79453;BME280;68899;52.116;5.404;2024-02-04T12:34:29;102138.72;;;10.08;92.90
79453;BME280;68899;52.116;5.404;2024-02-04T12:37:00;102135.03;;;10.12;92.67
79453;BME280;68899;52.116;5.404;2024-02-04T12:39:28;102140.31;;;10.12;92.35
79453;BME280;68899;52.116;5.404;2024-02-04T12:41:55;102141.16;;;10.12;92.41
79453;BME280;68899;52.116;5.404;2024-02-04T12:44:22;102143.84;;;10.11;92.29
79453;BME280;68899;52.116;5.404;2024-02-04T12:46:52;102153.44;;;10.12;92.40
79453;BME280;68899;52.116;5.404;2024-02-04T12:49:20;102146.47;;;10.11;92.35
79453;BME280;68899;52.116;5.404;2024-02-04T12:51:48;102146.47;;;10.11;92.17
79453;BME280;68899;52.116;5.404;2024-02-04T12:54:15;102145.56;;;10.12;92.12
79453;BME280;68899;52.116;5.404;2024-02-04T12:59:10;102131.50;;;10.13;92.13
79453;BME280;68899;52.116;5.404;2024-02-04T13:01:39;102126.16;;;10.14;92.20
79453;BME280;68899;52.116;5.404;2024-02-04T13:04:06;102108.63;;;10.15;92.05
79453;BME280;68899;52.116;5.404;2024-02-04T13:06:38;102114.78;;;10.14;91.76
79453;BME280;68899;52.116;5.404;2024-02-04T13:09:05;102121.91;;;10.12;91.91
79453;BME280;68899;52.116;5.404;2024-02-04T13:11:32;102120.13;;;10.12;91.86